createdAt,value
2019-04-04T00:00:50.327Z,10.55
2019-04-04T00:03:20.930Z,10.61
2019-04-04T00:05:49.672Z,10.52
2019-04-04T00:08:18.586Z,10.45
2019-04-04T00:10:47.640Z,10.43
2019-04-04T00:13:16.547Z,10.53
2019-04-04T00:15:46.043Z,10.55
2019-04-04T00:18:15.047Z,10.47
2019-04-04T00:20:43.689Z,10.52
2019-04-04T00:23:12.321Z,10.42
2019-04-04T00:25:41.230Z,10.45
2019-04-04T00:28:10.816Z,10.45
2019-04-04T00:30:40.297Z,10.39
2019-04-04T00:33:08.934Z,10.40
2019-04-04T00:35:37.632Z,10.48
2019-04-04T00:38:07.137Z,10.50
2019-04-04T00:40:36.475Z,10.51
2019-04-04T00:43:05.499Z,10.40
2019-04-04T00:45:38.198Z,10.40
2019-04-04T00:48:06.827Z,10.35
2019-04-04T00:50:36.725Z,10.32
2019-04-04T00:53:05.954Z,10.43
2019-04-04T00:55:34.951Z,10.35
2019-04-04T00:58:03.679Z,10.39
2019-04-04T01:00:32.655Z,10.34
2019-04-04T01:03:01.662Z,10.38
2019-04-04T01:05:32.129Z,10.38
2019-04-04T01:08:01.578Z,10.40
2019-04-04T01:10:30.474Z,10.43
2019-04-04T01:12:59.116Z,10.41
2019-04-04T01:15:29.028Z,10.38
2019-04-04T01:17:58.422Z,10.33
2019-04-04T01:20:27.082Z,10.23
2019-04-04T01:22:56.728Z,10.25
2019-04-04T01:25:25.374Z,10.21
2019-04-04T01:27:54.009Z,10.15
2019-04-04T01:30:22.937Z,10.09
2019-04-04T01:32:51.558Z,10.07
2019-04-04T01:35:22.440Z,9.99
2019-04-04T01:37:51.758Z,10.08
2019-04-04T01:40:20.733Z,10.08
2019-04-04T01:42:49.951Z,10.05
2019-04-04T01:45:18.598Z,9.99
2019-04-04T01:47:47.970Z,9.96
2019-04-04T01:50:17.754Z,9.96
2019-04-04T01:52:46.744Z,9.89
2019-04-04T01:55:15.357Z,9.79
2019-04-04T01:57:44.318Z,9.77
2019-04-04T02:00:15.232Z,9.78
2019-04-04T02:02:44.361Z,9.76
2019-04-04T02:05:13.357Z,9.73
2019-04-04T02:07:42.273Z,9.69
2019-04-04T02:10:11.437Z,9.68
2019-04-04T02:12:40.373Z,9.69
2019-04-04T02:15:09.632Z,9.65
2019-04-04T02:17:38.597Z,9.61
2019-04-04T02:20:08.059Z,9.58
2019-04-04T02:22:36.863Z,9.53
2019-04-04T02:25:05.737Z,9.46
2019-04-04T02:27:37.629Z,9.44
2019-04-04T02:30:06.504Z,9.42
2019-04-04T02:32:35.771Z,9.42
2019-04-04T02:35:04.863Z,9.44
2019-04-04T02:37:33.759Z,9.48
2019-04-04T02:40:02.666Z,9.46
2019-04-04T02:42:31.298Z,9.43
2019-04-04T02:45:00.250Z,9.47
2019-04-04T02:47:28.935Z,9.47
2019-04-04T02:50:00.624Z,9.42
2019-04-04T02:52:28.221Z,9.35
2019-04-04T02:54:58.417Z,9.30
2019-04-04T02:57:27.415Z,9.27
2019-04-04T02:59:56.436Z,9.19
2019-04-04T03:02:25.317Z,9.13
2019-04-04T03:04:54.523Z,9.18
2019-04-04T03:07:23.503Z,9.29
2019-04-04T03:09:52.526Z,9.30
2019-04-04T03:12:21.188Z,9.21
2019-04-04T03:14:50.826Z,9.03
2019-04-04T03:17:19.629Z,8.96
2019-04-04T03:19:48.891Z,9.08
2019-04-04T03:22:17.901Z,9.09
2019-04-04T03:24:46.782Z,9.07
2019-04-04T03:27:15.403Z,9.05
2019-04-04T03:29:44.361Z,8.97
2019-04-04T03:32:14.426Z,8.96
2019-04-04T03:34:49.768Z,8.92
2019-04-04T03:37:14.022Z,8.92
2019-04-04T03:39:42.996Z,8.89
2019-04-04T03:42:11.682Z,8.93
2019-04-04T03:44:40.286Z,8.92
2019-04-04T03:47:10.577Z,8.90
2019-04-04T03:49:39.960Z,8.88
2019-04-04T03:52:11.302Z,8.81
2019-04-04T03:54:39.314Z,8.82
2019-04-04T03:57:11.113Z,8.90
2019-04-04T03:59:38.351Z,8.87
2019-04-04T04:02:07.423Z,8.79
2019-04-04T04:04:36.312Z,8.74
2019-04-04T04:07:05.202Z,8.68
2019-04-04T04:09:34.157Z,8.68
2019-04-04T04:12:03.434Z,8.62
2019-04-04T04:14:32.695Z,8.60
2019-04-04T04:17:02.009Z,8.57
2019-04-04T04:19:31.467Z,8.51
2019-04-04T04:22:00.528Z,8.46
2019-04-04T04:24:30.327Z,8.40
2019-04-04T04:26:59.309Z,8.44
2019-04-04T04:29:29.878Z,8.47
2019-04-04T04:31:58.610Z,8.44
2019-04-04T04:34:27.479Z,8.44
2019-04-04T04:36:56.411Z,8.41
2019-04-04T04:39:25.309Z,8.46
2019-04-04T04:41:54.454Z,8.45
2019-04-04T04:44:23.133Z,8.42
2019-04-04T04:46:52.076Z,8.41
2019-04-04T04:49:23.298Z,8.33
2019-04-04T04:51:51.406Z,8.30
2019-04-04T04:54:22.685Z,8.30
2019-04-04T04:56:51.017Z,8.30
2019-04-04T04:59:19.906Z,8.21
2019-04-04T05:01:50.548Z,8.21
2019-04-04T05:04:19.597Z,8.24
2019-04-04T05:06:48.227Z,8.24
2019-04-04T05:09:17.445Z,8.21
2019-04-04T05:11:48.087Z,8.30
2019-04-04T05:14:17.901Z,8.34
2019-04-04T05:16:46.860Z,8.36
2019-04-04T05:19:17.106Z,8.35
2019-04-04T05:21:46.587Z,8.30
2019-04-04T05:24:16.053Z,8.39
2019-04-04T05:26:45.585Z,8.40
2019-04-04T05:29:14.523Z,8.41
2019-04-04T05:31:43.114Z,8.43
2019-04-04T05:34:12.375Z,8.52
2019-04-04T05:36:41.574Z,8.58
2019-04-04T05:39:10.261Z,8.63
2019-04-04T05:41:38.893Z,8.69
2019-04-04T05:44:10.031Z,8.73
2019-04-04T05:46:38.572Z,8.74
2019-04-04T05:49:08.294Z,8.77
2019-04-04T05:51:37.165Z,8.83
2019-04-04T05:54:07.619Z,8.89
2019-04-04T05:56:36.431Z,8.94
2019-04-04T05:59:05.192Z,9.03
2019-04-04T06:01:35.334Z,9.08
2019-04-04T06:04:04.331Z,9.16
2019-04-04T06:06:33.454Z,9.24
2019-04-04T06:09:04.493Z,9.30
2019-04-04T06:11:33.080Z,9.35
2019-04-04T06:14:02.321Z,9.38
2019-04-04T06:16:30.933Z,9.42
2019-04-04T06:18:59.902Z,9.51
2019-04-04T06:21:28.569Z,9.55
2019-04-04T06:23:57.470Z,9.65
2019-04-04T06:26:26.579Z,9.76
2019-04-04T06:28:55.562Z,9.79
2019-04-04T06:31:26.519Z,9.88
2019-04-04T06:33:55.190Z,9.97
2019-04-04T06:36:23.855Z,9.92
2019-04-04T06:38:53.981Z,9.95
2019-04-04T06:41:23.498Z,9.94
2019-04-04T06:43:52.394Z,9.99
2019-04-04T06:46:22.886Z,10.02
2019-04-04T06:48:51.608Z,10.05
2019-04-04T06:51:20.627Z,10.11
2019-04-04T06:53:53.314Z,10.13
2019-04-04T06:56:20.538Z,10.25
2019-04-04T06:58:49.428Z,10.37
2019-04-04T07:01:20.927Z,10.47
2019-04-04T07:03:48.406Z,10.56
2019-04-04T07:06:17.049Z,10.60
2019-04-04T07:08:46.792Z,10.65
2019-04-04T07:11:21.511Z,10.64
2019-04-04T07:13:47.389Z,10.74
2019-04-04T07:16:16.377Z,10.90
2019-04-04T07:18:45.674Z,10.90
2019-04-04T07:21:14.568Z,11.02
2019-04-04T07:23:43.202Z,11.07
2019-04-04T07:26:14.817Z,11.15
2019-04-04T07:28:42.478Z,11.23
2019-04-04T07:31:11.567Z,11.40
2019-04-04T07:33:42.588Z,11.38
2019-04-04T07:36:11.197Z,11.34
2019-04-04T07:38:39.846Z,11.36
2019-04-04T07:41:09.169Z,11.42
2019-04-04T07:43:39.414Z,11.50
2019-04-04T07:46:16.123Z,11.61
2019-04-04T07:48:38.731Z,11.85
2019-04-04T07:51:07.717Z,12.04
2019-04-04T07:53:37.054Z,12.00
2019-04-04T07:56:06.845Z,12.21
2019-04-04T07:58:35.489Z,12.17
2019-04-04T08:01:04.521Z,12.31
2019-04-04T08:03:33.140Z,12.58
2019-04-04T08:06:02.104Z,12.75
2019-04-04T08:08:31.388Z,12.61
2019-04-04T08:11:00.353Z,12.49
2019-04-04T08:13:28.987Z,12.75
2019-04-04T08:15:57.660Z,12.80
2019-04-04T08:18:29.327Z,12.83
2019-04-04T08:20:57.981Z,12.73
2019-04-04T08:23:26.870Z,12.70
2019-04-04T08:25:55.491Z,12.95
2019-04-04T08:28:24.464Z,13.10
2019-04-04T08:30:53.098Z,13.38
2019-04-04T08:33:22.040Z,13.74
2019-04-04T08:35:50.933Z,13.75
2019-04-04T08:38:20.386Z,13.93
2019-04-04T08:40:49.087Z,14.22
2019-04-04T08:43:18.024Z,13.72
2019-04-04T08:45:47.018Z,13.67
2019-04-04T08:48:16.002Z,13.74
2019-04-04T08:50:45.305Z,14.06
2019-04-04T08:53:13.916Z,14.01
2019-04-04T08:55:43.188Z,14.29
2019-04-04T08:58:12.799Z,14.47
2019-04-04T09:00:42.099Z,14.55
2019-04-04T09:03:11.024Z,14.58
2019-04-04T09:05:39.988Z,14.49
2019-04-04T09:08:09.283Z,14.86
2019-04-04T09:10:38.278Z,15.13
2019-04-04T09:13:07.481Z,15.25
2019-04-04T09:15:36.470Z,15.21
2019-04-04T09:18:05.201Z,15.64
2019-04-04T09:20:33.819Z,15.65
2019-04-04T09:23:02.434Z,15.53
2019-04-04T09:25:31.422Z,15.72
2019-04-04T09:28:00.330Z,16.04
2019-04-04T09:30:29.409Z,16.32
2019-04-04T09:32:58.404Z,16.68
2019-04-04T09:35:27.122Z,17.02
2019-04-04T09:37:55.765Z,17.47
2019-04-04T09:40:24.668Z,17.75
2019-04-04T09:42:53.968Z,17.39
2019-04-04T09:45:22.973Z,17.25
2019-04-04T09:47:51.942Z,16.84
2019-04-04T09:50:20.563Z,17.11
2019-04-04T09:52:49.841Z,17.62
2019-04-04T09:55:18.833Z,17.70
2019-04-04T09:57:48.136Z,16.87
2019-04-04T10:00:18.543Z,17.11
2019-04-04T10:02:47.764Z,17.33
2019-04-04T10:05:16.754Z,17.41
2019-04-04T10:07:45.747Z,18.32
2019-04-04T10:10:16.665Z,18.09
2019-04-04T10:12:45.686Z,19.25
2019-04-04T10:15:14.473Z,19.12
2019-04-04T10:17:43.975Z,17.77
2019-04-04T10:20:13.074Z,17.62
2019-04-04T10:22:42.075Z,17.44
2019-04-04T10:25:10.869Z,17.29
2019-04-04T10:27:39.853Z,16.98
2019-04-04T10:30:09.105Z,16.94
2019-04-04T10:32:38.040Z,17.21
2019-04-04T10:35:06.787Z,17.40
2019-04-04T10:37:35.721Z,17.50
2019-04-04T10:40:05.177Z,18.17
2019-04-04T10:42:34.117Z,18.46
2019-04-04T10:45:02.753Z,18.50
2019-04-04T10:47:31.395Z,19.22
2019-04-04T10:50:00.382Z,18.68
2019-04-04T10:52:29.276Z,18.76
2019-04-04T10:55:01.323Z,18.80
2019-04-04T10:57:29.104Z,19.45
2019-04-04T10:59:58.086Z,19.80
2019-04-04T11:02:26.729Z,19.21
2019-04-04T11:04:55.675Z,18.68
2019-04-04T11:07:24.659Z,18.13
2019-04-04T11:09:53.282Z,17.77
2019-04-04T11:12:21.960Z,18.35
2019-04-04T11:14:50.939Z,17.85
2019-04-04T11:17:19.826Z,17.94
2019-04-04T11:19:48.824Z,18.60
2019-04-04T11:22:17.712Z,18.73
2019-04-04T11:24:46.908Z,18.86
2019-04-04T11:27:17.481Z,19.24
2019-04-04T11:29:46.534Z,19.30
2019-04-04T11:32:15.546Z,20.28
2019-04-04T11:34:53.173Z,20.50
2019-04-04T11:37:14.966Z,19.73
2019-04-04T11:39:54.055Z,20.96
2019-04-04T11:42:14.271Z,21.15
2019-04-04T11:44:42.902Z,21.62
2019-04-04T11:47:12.156Z,19.59
2019-04-04T11:49:41.044Z,19.98
2019-04-04T11:52:10.038Z,19.83
2019-04-04T11:54:57.230Z,19.71
2019-04-04T11:57:26.258Z,21.02
2019-04-04T11:59:54.950Z,20.24
2019-04-04T12:02:24.121Z,20.48
2019-04-04T12:04:52.847Z,20.33
2019-04-04T12:07:21.471Z,20.44
2019-04-04T12:09:50.202Z,20.38
2019-04-04T12:12:18.905Z,21.37
2019-04-04T12:14:47.525Z,21.12
2019-04-04T12:17:16.493Z,20.46
2019-04-04T12:19:45.135Z,20.63
2019-04-04T12:22:14.040Z,20.64
2019-04-04T12:24:42.673Z,21.17
2019-04-04T12:27:11.928Z,21.11
2019-04-04T12:29:41.231Z,21.08
2019-04-04T12:32:10.128Z,21.98
2019-04-04T12:34:39.418Z,21.79
2019-04-04T12:37:08.402Z,21.64
2019-04-04T12:39:37.407Z,21.12
2019-04-04T12:42:06.114Z,21.23
2019-04-04T12:44:35.087Z,20.78
2019-04-04T12:47:04.084Z,21.26
2019-04-04T12:49:32.706Z,21.72
2019-04-04T12:52:01.666Z,21.71
2019-04-04T12:54:30.312Z,21.67
2019-04-04T12:56:59.257Z,21.90
2019-04-04T12:59:28.229Z,21.21
2019-04-04T13:01:57.533Z,20.75
2019-04-04T13:04:31.663Z,21.67
2019-04-04T13:06:57.158Z,21.66
2019-04-04T13:09:26.155Z,22.04
2019-04-04T13:11:54.799Z,21.31
2019-04-04T13:14:23.583Z,20.70
2019-04-04T13:16:52.830Z,20.81
2019-04-04T13:19:21.717Z,20.89
2019-04-04T13:21:50.358Z,21.22
2019-04-04T13:24:19.912Z,21.45
2019-04-04T13:26:48.893Z,21.29
2019-04-04T13:29:17.826Z,21.09
2019-04-04T13:31:46.450Z,20.81
2019-04-04T13:34:15.374Z,22.11
2019-04-04T13:36:44.023Z,21.81
2019-04-04T13:39:12.659Z,22.23
2019-04-04T13:41:41.294Z,23.16
2019-04-04T13:44:10.336Z,21.84
2019-04-04T13:46:39.333Z,21.59
2019-04-04T13:49:08.625Z,20.68
2019-04-04T13:51:37.342Z,20.85
2019-04-04T13:54:05.989Z,21.29
2019-04-04T13:56:34.724Z,20.70
2019-04-04T13:59:05.926Z,20.85
2019-04-04T14:01:34.130Z,20.26
2019-04-04T14:04:03.080Z,20.19
2019-04-04T14:06:32.097Z,19.89
2019-04-04T14:09:01.391Z,19.52
2019-04-04T14:11:30.688Z,19.74
2019-04-04T14:13:59.581Z,19.55
2019-04-04T14:16:28.190Z,19.57
2019-04-04T14:18:57.463Z,19.70
2019-04-04T14:21:26.111Z,19.58
2019-04-04T14:23:56.843Z,19.58
2019-04-04T14:26:25.478Z,19.99
2019-04-04T14:28:54.133Z,20.26
2019-04-04T14:31:23.057Z,20.38
2019-04-04T14:33:51.660Z,20.62
2019-04-04T14:36:20.624Z,20.64
2019-04-04T14:38:49.508Z,20.38
2019-04-04T14:41:18.512Z,20.42
2019-04-04T14:43:47.400Z,20.86
2019-04-04T14:46:18.550Z,20.54
2019-04-04T14:48:47.200Z,20.80
2019-04-04T14:51:16.541Z,21.05
2019-04-04T14:53:45.158Z,20.98
2019-04-04T14:56:14.741Z,20.80
2019-04-04T14:58:43.708Z,20.65
2019-04-04T15:01:13.326Z,20.22
2019-04-04T15:03:42.423Z,20.74
2019-04-04T15:06:11.508Z,20.43
2019-04-04T15:08:40.721Z,20.28
2019-04-04T15:11:09.349Z,20.83
2019-04-04T15:13:37.995Z,21.24
2019-04-04T15:16:16.877Z,20.93
2019-04-04T15:18:46.420Z,20.58
2019-04-04T15:21:16.161Z,20.33
2019-04-04T15:23:45.128Z,20.75
2019-04-04T15:26:14.018Z,20.97
2019-04-04T15:28:43.336Z,20.57
2019-04-04T15:31:12.323Z,20.49
2019-04-04T15:33:41.613Z,20.37
2019-04-04T15:36:10.226Z,20.58
2019-04-04T15:38:39.308Z,20.66
2019-04-04T15:41:08.287Z,20.80
2019-04-04T15:43:37.709Z,20.96
2019-04-04T15:46:06.684Z,20.47
2019-04-04T15:48:35.322Z,20.13
2019-04-04T15:51:04.570Z,20.86
2019-04-04T15:53:33.177Z,21.07
2019-04-04T15:56:01.805Z,20.95
2019-04-04T15:58:30.456Z,21.09
2019-04-04T16:00:59.082Z,20.92
2019-04-04T16:03:28.310Z,20.68
2019-04-04T16:05:57.199Z,21.43
2019-04-04T16:08:26.094Z,21.31
2019-04-04T16:10:55.019Z,21.03
2019-04-04T16:13:23.974Z,21.12
2019-04-04T16:15:52.964Z,21.29
2019-04-04T16:18:21.861Z,21.59
2019-04-04T16:20:50.512Z,21.23
2019-04-04T16:23:19.150Z,20.99
2019-04-04T16:25:48.329Z,20.29
2019-04-04T16:28:17.324Z,20.44
2019-04-04T16:30:46.210Z,20.50
2019-04-04T16:33:15.107Z,20.21
2019-04-04T16:35:44.113Z,20.01
2019-04-04T16:38:12.838Z,19.62
2019-04-04T16:40:41.426Z,19.41
2019-04-04T16:43:10.396Z,19.44
2019-04-04T16:45:39.366Z,19.21
2019-04-04T16:48:07.986Z,19.11
2019-04-04T16:50:36.938Z,18.89
2019-04-04T16:53:05.932Z,18.75
2019-04-04T16:55:34.801Z,18.65
2019-04-04T16:58:03.448Z,18.53
2019-04-04T17:00:32.297Z,18.64
2019-04-04T17:03:01.197Z,18.67
2019-04-04T17:05:30.284Z,18.93
2019-04-04T17:07:59.181Z,19.09
2019-04-04T17:10:28.367Z,19.00
2019-04-04T17:12:57.372Z,18.80
2019-04-04T17:15:26.518Z,18.74
2019-04-04T17:17:55.470Z,18.77
2019-04-04T17:20:24.454Z,18.66
2019-04-04T17:22:53.450Z,18.61
2019-04-04T17:25:22.338Z,18.56
2019-04-04T17:27:51.538Z,18.16
2019-04-04T17:30:20.867Z,17.97
2019-04-04T17:32:50.310Z,17.78
2019-04-04T17:35:19.253Z,17.63
2019-04-04T17:37:48.127Z,17.50
2019-04-04T17:40:18.295Z,17.44
2019-04-04T17:42:47.531Z,17.31
2019-04-04T17:45:16.551Z,17.16
2019-04-04T17:47:45.290Z,16.99
2019-04-04T17:50:17.589Z,16.78
2019-04-04T17:52:45.159Z,16.93
2019-04-04T17:55:14.568Z,16.70
2019-04-04T17:57:43.577Z,16.49
2019-04-04T18:00:13.268Z,16.47
2019-04-04T18:02:41.920Z,16.32
2019-04-04T18:05:10.641Z,16.29
2019-04-04T18:07:39.576Z,16.22
2019-04-04T18:10:08.599Z,16.18
2019-04-04T18:12:40.617Z,16.06
2019-04-04T18:15:08.360Z,16.01
2019-04-04T18:17:37.042Z,15.87
2019-04-04T18:20:06.828Z,15.83
2019-04-04T18:22:35.784Z,15.77
2019-04-04T18:25:04.974Z,15.63
2019-04-04T18:27:33.918Z,15.49
2019-04-04T18:30:02.550Z,15.45
2019-04-04T18:32:31.525Z,15.43
2019-04-04T18:35:00.529Z,15.33
2019-04-04T18:37:29.187Z,15.13
2019-04-04T18:39:57.790Z,15.14
2019-04-04T18:42:26.774Z,15.06
2019-04-04T18:44:55.455Z,14.95
2019-04-04T18:47:24.607Z,14.92
2019-04-04T18:49:53.555Z,14.82
2019-04-04T18:52:22.547Z,14.81
2019-04-04T18:54:51.542Z,14.90
2019-04-04T18:57:20.438Z,14.81
2019-04-04T18:59:49.084Z,14.70
2019-04-04T19:02:18.424Z,14.55
2019-04-04T19:04:47.843Z,14.52
2019-04-04T19:07:16.491Z,14.61
2019-04-04T19:09:45.215Z,14.56
2019-04-04T19:12:14.499Z,14.45
2019-04-04T19:14:43.397Z,14.49
2019-04-04T19:17:12.282Z,14.33
2019-04-04T19:19:40.919Z,14.27
2019-04-04T19:22:10.274Z,14.06
2019-04-04T19:24:38.950Z,14.05
2019-04-04T19:27:08.355Z,13.95
2019-04-04T19:29:37.255Z,14.02
2019-04-04T19:32:05.958Z,13.94
2019-04-04T19:34:35.133Z,13.94
2019-04-04T19:37:03.767Z,13.89
2019-04-04T19:39:32.422Z,13.85
2019-04-04T19:42:01.494Z,13.78
2019-04-04T19:44:30.698Z,13.72
2019-04-04T19:46:59.691Z,13.60
2019-04-04T19:49:28.892Z,13.42
2019-04-04T19:51:57.781Z,13.34
2019-04-04T19:54:26.773Z,13.38
2019-04-04T19:56:56.180Z,13.39
2019-04-04T19:59:24.822Z,13.18
2019-04-04T20:01:53.766Z,13.14
2019-04-04T20:04:22.687Z,13.14
2019-04-04T20:06:51.641Z,13.12
2019-04-04T20:09:20.537Z,13.06
2019-04-04T20:11:49.527Z,13.09
2019-04-04T20:14:18.731Z,13.10
2019-04-04T20:16:47.621Z,13.18
2019-04-04T20:19:16.725Z,13.09
2019-04-04T20:21:45.698Z,12.93
2019-04-04T20:24:14.750Z,12.95
2019-04-04T20:26:43.405Z,12.89
2019-04-04T20:29:12.390Z,12.77
2019-04-04T20:31:41.684Z,12.65
2019-04-04T20:34:10.326Z,12.75
2019-04-04T20:36:38.967Z,12.65
2019-04-04T20:39:07.987Z,12.62
2019-04-04T20:41:36.603Z,12.58
2019-04-04T20:44:05.625Z,12.56
2019-04-04T20:46:34.306Z,12.56
2019-04-04T20:49:02.992Z,12.47
2019-04-04T20:51:31.716Z,12.47
2019-04-04T20:54:00.682Z,12.48
2019-04-04T20:56:29.678Z,12.50
2019-04-04T20:58:58.283Z,12.24
2019-04-04T21:01:27.257Z,12.24
2019-04-04T21:03:55.897Z,12.19
2019-04-04T21:06:24.829Z,12.13
2019-04-04T21:08:53.480Z,12.03
2019-04-04T21:11:22.106Z,11.98
2019-04-04T21:13:56.499Z,11.95
2019-04-04T21:16:21.411Z,11.85
2019-04-04T21:18:50.304Z,11.67
2019-04-04T21:21:18.955Z,11.60
2019-04-04T21:23:48.196Z,11.68
2019-04-04T21:26:17.087Z,11.63
2019-04-04T21:28:46.091Z,11.55
2019-04-04T21:31:14.713Z,11.54
2019-04-04T21:33:43.662Z,11.65
2019-04-04T21:36:12.657Z,11.52
2019-04-04T21:38:41.555Z,11.55
2019-04-04T21:41:10.540Z,11.50
2019-04-04T21:43:39.754Z,11.53
2019-04-04T21:46:08.738Z,11.54
2019-04-04T21:48:38.037Z,11.37
2019-04-04T21:51:06.760Z,11.50
2019-04-04T21:53:35.711Z,11.37
2019-04-04T21:56:04.720Z,11.25
2019-04-04T21:58:34.012Z,11.34
2019-04-04T22:01:02.941Z,11.47
2019-04-04T22:03:31.894Z,11.41
2019-04-04T22:06:00.956Z,11.43
2019-04-04T22:08:29.879Z,11.35
2019-04-04T22:10:58.552Z,11.46
2019-04-04T22:13:27.767Z,11.50
2019-04-04T22:15:56.657Z,11.45
2019-04-04T22:18:25.594Z,11.49
2019-04-04T22:20:54.541Z,11.48
2019-04-04T22:23:23.535Z,11.67
2019-04-04T22:25:52.427Z,11.81
2019-04-04T22:28:21.318Z,11.69
2019-04-04T22:30:49.937Z,11.56
2019-04-04T22:33:18.608Z,11.55
2019-04-04T22:35:47.208Z,11.42
2019-04-04T22:38:16.164Z,11.47
2019-04-04T22:40:45.370Z,11.54
2019-04-04T22:43:14.007Z,11.42
2019-04-04T22:45:43.247Z,11.46
2019-04-04T22:48:12.552Z,11.53
2019-04-04T22:50:41.193Z,11.58
2019-04-04T22:53:10.437Z,11.67
2019-04-04T22:55:39.061Z,11.52
2019-04-04T22:58:08.002Z,11.56
2019-04-04T23:00:36.904Z,11.59
2019-04-04T23:03:07.342Z,11.72
2019-04-04T23:05:36.224Z,11.72
2019-04-04T23:08:07.537Z,11.68
2019-04-04T23:10:35.598Z,11.65
2019-04-04T23:13:04.851Z,11.66
2019-04-04T23:15:33.476Z,11.60
2019-04-04T23:18:02.526Z,11.67
2019-04-04T23:20:31.150Z,11.72
2019-04-04T23:23:01.330Z,11.77
2019-04-04T23:25:30.426Z,11.83
2019-04-04T23:27:59.045Z,11.88
2019-04-04T23:30:27.700Z,11.90
2019-04-04T23:32:56.700Z,11.84
2019-04-04T23:35:25.652Z,11.87
2019-04-04T23:37:54.576Z,11.83
2019-04-04T23:40:23.571Z,11.78
2019-04-04T23:42:52.466Z,11.71
2019-04-04T23:45:21.469Z,11.79
2019-04-04T23:47:50.119Z,11.74
2019-04-04T23:50:19.153Z,11.78
2019-04-04T23:52:48.335Z,11.83
2019-04-04T23:55:16.988Z,11.89
2019-04-04T23:57:46.507Z,11.97
